Terminal Aerodrome Forecast
Issued by NWS

Current Version | Previous Version | Text Only | Print | Product List | Glossary On
Versions: 1 2 3 4 5 6 7 8 9 10 11 12 13 14
000
FTUS45 KABQ 230700 AAA
TAFTCC
TAF AMD
KTCC 230728Z 2307/2406 18005KT P6SM VCFG FEW015 SCT050
      TEMPO 2308/2311 BKN015
     FM231300 21010KT P6SM SCT015 OVC040
     FM231500 24010G20KT P6SM SCT035 BKN050
     FM231900 21010G20KT P6SM SCT060
     FM240200 21010KT P6SM SKC=

USA.gov is the U.S. government's official web portal to all federal, state and local government web resources and services.